Ammon, Idaho
Current Conditions -  °F | °C
As of 4:53 PM on Sunday 21 Dec 2014 (Local Time) from KIDA Reporting Station
Broken Clouds Broken Clouds  
Wind Chill: 36°   Ceiling: 9500
Heat Index: 42°   Visibility: 10mi
Dew Point: 34°   Wind: 10mph
Humidity: 73%   Direction: 280°W
Pressure: 29.81"   Gusts: NA
Location:  43.4284°N, 111.925°W
Report Text: KIDA 212353Z 28009KT 10SM FEW070 BKN095 06/01 A2981 RMK AO2 SLP098 T00560011 10072 20050 51026
Loading
Personal Weather Stations






























Interactive Weather Map New forecast layout! Learn more

10-Day Weather Forecast

Advertisements
Track Severe Weather on mobile